createdAt,value
2018-07-28T00:00:18.292Z,0
2018-07-28T00:01:20.334Z,0
2018-07-28T00:02:22.391Z,0
2018-07-28T00:03:24.435Z,0
2018-07-28T00:04:26.481Z,0
2018-07-28T00:05:28.532Z,0
2018-07-28T00:06:31.261Z,0
2018-07-28T00:07:33.609Z,0
2018-07-28T00:08:35.697Z,0
2018-07-28T00:09:37.712Z,0
2018-07-28T00:10:40.042Z,0
2018-07-28T00:11:42.378Z,0
2018-07-28T00:12:44.429Z,0
2018-07-28T00:13:46.465Z,0
2018-07-28T00:14:48.527Z,0
2018-07-28T00:15:50.848Z,0
2018-07-28T00:16:52.899Z,0
2018-07-28T00:17:54.944Z,0
2018-07-28T00:18:56.996Z,0
2018-07-28T00:19:59.428Z,0
2018-07-28T00:21:01.473Z,0
2018-07-28T00:22:04.308Z,0
2018-07-28T00:23:06.347Z,0
2018-07-28T00:24:08.786Z,0
2018-07-28T00:25:11.114Z,0
2018-07-28T00:26:13.435Z,0
2018-07-28T00:27:15.476Z,0
2018-07-28T00:28:17.528Z,0
2018-07-28T00:29:19.573Z,0
2018-07-28T00:30:22.011Z,0
2018-07-28T00:31:24.066Z,0
2018-07-28T00:32:26.683Z,0
2018-07-28T00:33:28.734Z,0
2018-07-28T00:34:31.072Z,0
2018-07-28T00:35:33.106Z,0
2018-07-28T00:36:35.158Z,0
2018-07-28T00:37:37.201Z,0
2018-07-28T00:38:39.519Z,0
2018-07-28T00:39:41.576Z,0
2018-07-28T00:40:43.615Z,0
2018-07-28T00:41:46.039Z,0
2018-07-28T00:42:48.080Z,0
2018-07-28T00:43:50.133Z,0
2018-07-28T00:44:52.463Z,0
2018-07-28T00:45:54.522Z,0
2018-07-28T00:46:56.859Z,0
2018-07-28T00:47:58.896Z,0
2018-07-28T00:49:01.341Z,0
2018-07-28T00:50:03.379Z,0
2018-07-28T00:51:05.427Z,0
2018-07-28T00:52:07.464Z,0
2018-07-28T00:53:09.513Z,0
2018-07-28T00:54:11.583Z,0
2018-07-28T00:55:13.605Z,0
2018-07-28T00:56:15.945Z,0
2018-07-28T00:57:17.987Z,0
2018-07-28T00:58:20.024Z,0
2018-07-28T00:59:22.356Z,0
2018-07-28T01:00:24.393Z,0
2018-07-28T01:01:26.454Z,0
2018-07-28T01:02:28.501Z,0
2018-07-28T01:03:30.552Z,0
2018-07-28T01:04:32.604Z,0
2018-07-28T01:05:34.640Z,0
2018-07-28T01:06:36.692Z,0
2018-07-28T01:07:38.742Z,0
2018-07-28T01:08:40.776Z,0
2018-07-28T01:09:43.113Z,0
2018-07-28T01:10:45.449Z,0
2018-07-28T01:11:47.770Z,0
2018-07-28T01:12:50.107Z,0
2018-07-28T01:13:52.147Z,0
2018-07-28T01:14:54.189Z,0
2018-07-28T01:15:56.229Z,0
2018-07-28T01:16:58.568Z,0
2018-07-28T01:18:00.904Z,0
2018-07-28T01:19:02.955Z,0
2018-07-28T01:20:05.005Z,0
2018-07-28T01:21:07.433Z,0
2018-07-28T01:22:09.485Z,0
2018-07-28T01:23:11.522Z,0
2018-07-28T01:24:13.854Z,0
2018-07-28T01:25:16.182Z,0
2018-07-28T01:26:18.230Z,0
2018-07-28T01:27:20.661Z,0
2018-07-28T01:28:23.088Z,0
2018-07-28T01:29:25.426Z,0
2018-07-28T01:30:27.461Z,0
2018-07-28T01:31:29.510Z,0
2018-07-28T01:32:31.562Z,0
2018-07-28T01:33:33.609Z,0
2018-07-28T01:34:35.647Z,0
2018-07-28T01:35:37.996Z,0
2018-07-28T01:36:40.435Z,0
2018-07-28T01:37:42.486Z,0
2018-07-28T01:38:44.911Z,0
2018-07-28T01:39:47.244Z,0
2018-07-28T01:40:49.293Z,0
2018-07-28T01:41:51.713Z,0
2018-07-28T01:42:53.763Z,0
2018-07-28T01:43:55.812Z,0
2018-07-28T01:44:57.850Z,0
2018-07-28T01:45:59.905Z,0
2018-07-28T01:47:02.335Z,0
2018-07-28T01:48:04.373Z,0
2018-07-28T01:49:06.853Z,0
2018-07-28T01:50:08.908Z,0
2018-07-28T01:51:10.949Z,0
2018-07-28T01:52:13.006Z,0
2018-07-28T01:53:15.063Z,0
2018-07-28T01:54:17.080Z,0
2018-07-28T01:55:19.135Z,0
2018-07-28T01:56:21.178Z,0
2018-07-28T01:57:23.229Z,0
2018-07-28T01:58:25.264Z,0
2018-07-28T01:59:27.314Z,0
2018-07-28T02:00:29.648Z,0
2018-07-28T02:01:31.691Z,0
2018-07-28T02:02:33.746Z,0
2018-07-28T02:03:35.782Z,0
2018-07-28T02:04:37.830Z,0
2018-07-28T02:05:39.877Z,0
2018-07-28T02:06:41.925Z,0
2018-07-28T02:07:43.962Z,0
2018-07-28T02:08:46.006Z,0
2018-07-28T02:09:48.046Z,0
2018-07-28T02:10:50.082Z,0
2018-07-28T02:11:52.136Z,0
2018-07-28T02:12:54.177Z,0
2018-07-28T02:13:56.507Z,0
2018-07-28T02:14:58.538Z,0
2018-07-28T02:16:00.887Z,0
2018-07-28T02:17:02.935Z,0
2018-07-28T02:18:04.974Z,0
2018-07-28T02:19:07.028Z,0
2018-07-28T02:20:09.066Z,0
2018-07-28T02:21:11.107Z,0
2018-07-28T02:22:13.151Z,0
2018-07-28T02:23:15.205Z,0
2018-07-28T02:24:17.244Z,0
2018-07-28T02:25:19.600Z,0
2018-07-28T02:26:21.672Z,0
2018-07-28T02:27:23.706Z,0
2018-07-28T02:28:26.151Z,0
2018-07-28T02:29:28.190Z,0
2018-07-28T02:30:30.241Z,0
2018-07-28T02:31:32.579Z,0
2018-07-28T02:32:34.626Z,0
2018-07-28T02:33:37.060Z,0
2018-07-28T02:34:39.691Z,0
2018-07-28T02:35:41.742Z,0
2018-07-28T02:36:44.086Z,0
2018-07-28T02:37:46.730Z,0
2018-07-28T02:38:49.166Z,0
2018-07-28T02:39:51.218Z,4
2018-07-28T02:40:53.642Z,4
2018-07-28T02:41:55.983Z,4
2018-07-28T02:42:58.025Z,0
2018-07-28T02:44:00.067Z,4
2018-07-28T02:45:02.117Z,4
2018-07-28T02:46:04.160Z,4
2018-07-28T02:47:07.653Z,4
2018-07-28T02:48:10.388Z,4
2018-07-28T02:49:12.724Z,8
2018-07-28T02:50:15.055Z,4
2018-07-28T02:51:17.780Z,8
2018-07-28T02:52:20.095Z,8
2018-07-28T02:53:22.454Z,12
2018-07-28T02:54:24.796Z,12
2018-07-28T02:55:26.842Z,12
2018-07-28T02:56:28.876Z,16
2018-07-28T02:57:31.318Z,20
2018-07-28T02:58:33.747Z,24
2018-07-28T02:59:36.071Z,24
2018-07-28T03:00:38.727Z,28
2018-07-28T03:01:41.045Z,32
2018-07-28T03:02:43.092Z,36
2018-07-28T03:03:45.132Z,44
2018-07-28T03:04:47.468Z,48
2018-07-28T03:05:50.082Z,56
2018-07-28T03:06:52.127Z,64
2018-07-28T03:07:54.763Z,72
2018-07-28T03:08:57.186Z,84
2018-07-28T03:10:00.018Z,92
2018-07-28T03:11:02.062Z,104
2018-07-28T03:12:04.097Z,116
2018-07-28T03:13:06.433Z,128
2018-07-28T03:14:08.888Z,144
2018-07-28T03:15:11.202Z,160
2018-07-28T03:16:13.536Z,172
2018-07-28T03:17:15.977Z,188
2018-07-28T03:18:18.576Z,208
2018-07-28T03:19:20.626Z,224
2018-07-28T03:20:22.678Z,244
2018-07-28T03:21:24.714Z,268
2018-07-28T03:22:27.346Z,284
2018-07-28T03:23:30.069Z,308
2018-07-28T03:24:32.406Z,328
2018-07-28T03:25:34.458Z,356
2018-07-28T03:26:36.799Z,380
2018-07-28T03:27:38.844Z,408
2018-07-28T03:28:41.161Z,436
2018-07-28T03:29:43.488Z,464
2018-07-28T03:30:45.923Z,496
2018-07-28T03:31:47.962Z,524
2018-07-28T03:32:50.286Z,552
2018-07-28T03:33:52.340Z,592
2018-07-28T03:34:54.372Z,620
2018-07-28T03:35:56.423Z,648
2018-07-28T03:36:58.461Z,684
2018-07-28T03:38:00.514Z,720
2018-07-28T03:39:02.554Z,756
2018-07-28T03:40:04.900Z,788
2018-07-28T03:41:06.949Z,828
2018-07-28T03:42:08.986Z,864
2018-07-28T03:43:11.322Z,900
2018-07-28T03:44:13.361Z,940
2018-07-28T03:45:15.401Z,980
2018-07-28T03:46:17.442Z,1020
2018-07-28T03:47:19.784Z,1060
2018-07-28T03:48:21.833Z,1096
2018-07-28T03:49:24.035Z,1140
2018-07-28T03:50:25.928Z,1180
2018-07-28T03:51:27.961Z,1224
2018-07-28T03:52:30.010Z,1264
2018-07-28T03:53:32.060Z,1304
2018-07-28T03:54:34.493Z,1352
2018-07-28T03:55:36.540Z,1396
2018-07-28T03:56:38.705Z,1436
2018-07-28T03:57:41.001Z,1484
2018-07-28T03:58:43.057Z,1520
2018-07-28T03:59:45.091Z,1568
2018-07-28T04:00:47.132Z,1608
2018-07-28T04:01:49.454Z,1656
2018-07-28T04:02:51.508Z,1700
2018-07-28T04:03:53.550Z,1744
2018-07-28T04:04:55.600Z,1784
2018-07-28T04:05:57.648Z,1832
2018-07-28T04:07:00.073Z,1872
2018-07-28T04:08:02.127Z,1912
2018-07-28T04:09:04.170Z,1956
2018-07-28T04:10:06.222Z,2000
2018-07-28T04:11:08.564Z,2040
2018-07-28T04:12:10.615Z,2080
2018-07-28T04:13:12.658Z,2124
2018-07-28T04:14:14.709Z,2164
2018-07-28T04:15:17.077Z,2200
2018-07-28T04:16:19.109Z,2240
2018-07-28T04:17:21.443Z,2280
2018-07-28T04:18:23.501Z,2312
2018-07-28T04:19:25.548Z,2352
2018-07-28T04:20:27.584Z,2396
2018-07-28T04:21:29.636Z,2428
2018-07-28T04:22:31.955Z,2464
2018-07-28T04:23:33.994Z,2500
2018-07-28T04:24:36.047Z,2540
2018-07-28T04:25:38.085Z,2584
2018-07-28T04:26:40.122Z,2620
2018-07-28T04:27:42.184Z,2664
2018-07-28T04:28:44.225Z,2692
2018-07-28T04:29:46.551Z,2728
2018-07-28T04:30:48.601Z,2764
2018-07-28T04:31:51.197Z,2800
2018-07-28T04:32:53.246Z,2824
2018-07-28T04:33:55.870Z,2864
2018-07-28T04:34:58.486Z,2900
2018-07-28T04:36:00.520Z,2940
2018-07-28T04:37:02.580Z,2992
2018-07-28T04:38:04.957Z,3020
2018-07-28T04:39:06.995Z,3060
2018-07-28T04:40:09.359Z,3096
2018-07-28T04:41:11.400Z,3128
2018-07-28T04:42:13.450Z,3180
2018-07-28T04:43:15.488Z,3204
2018-07-28T04:44:17.542Z,3240
2018-07-28T04:45:19.582Z,3276
2018-07-28T04:46:21.624Z,3312
2018-07-28T04:47:23.664Z,3344
2018-07-28T04:48:25.724Z,3380
2018-07-28T04:49:28.045Z,3416
2018-07-28T04:50:30.098Z,3452
2018-07-28T04:51:32.437Z,3504
2018-07-28T04:52:34.487Z,3520
2018-07-28T04:53:36.810Z,3560
2018-07-28T04:54:39.244Z,3596
2018-07-28T04:55:41.283Z,3624
2018-07-28T04:56:43.324Z,3652
2018-07-28T04:57:45.378Z,3684
2018-07-28T04:58:47.414Z,3724
2018-07-28T04:59:49.456Z,3756
2018-07-28T05:00:51.510Z,3800
2018-07-28T05:01:53.547Z,3820
2018-07-28T05:02:55.592Z,3888
2018-07-28T05:03:57.927Z,3900
2018-07-28T05:04:59.965Z,3928
2018-07-28T05:06:02.017Z,3952
2018-07-28T05:07:04.348Z,3992
2018-07-28T05:08:06.686Z,4016
2018-07-28T05:09:08.721Z,4044
2018-07-28T05:10:10.770Z,4072
2018-07-28T05:11:12.811Z,4108
2018-07-28T05:12:14.852Z,4144
2018-07-28T05:13:16.907Z,4184
2018-07-28T05:14:18.944Z,4228
2018-07-28T05:15:20.992Z,4240
2018-07-28T05:16:23.030Z,4276
2018-07-28T05:17:25.084Z,4296
2018-07-28T05:18:27.129Z,4332
2018-07-28T05:19:29.455Z,4368
2018-07-28T05:20:31.505Z,4392
2018-07-28T05:21:33.538Z,4424
2018-07-28T05:22:35.591Z,4444
2018-07-28T05:23:38.035Z,4472
2018-07-28T05:24:40.048Z,4504
2018-07-28T05:25:42.085Z,4536
2018-07-28T05:26:44.145Z,4564
2018-07-28T05:27:46.179Z,4636
2018-07-28T05:28:48.229Z,4664
2018-07-28T05:29:50.714Z,4692
2018-07-28T05:30:52.747Z,4728
2018-07-28T05:31:54.797Z,4776
2018-07-28T05:32:56.848Z,4804
2018-07-28T05:33:59.170Z,4840
2018-07-28T05:35:01.502Z,4880
2018-07-28T05:36:03.838Z,4912
2018-07-28T05:37:06.174Z,4940
2018-07-28T05:38:08.213Z,5004
2018-07-28T05:39:10.260Z,5016
2018-07-28T05:40:12.590Z,5048
2018-07-28T05:41:14.912Z,5084
2018-07-28T05:42:16.966Z,5116
2018-07-28T05:43:19.007Z,5156
2018-07-28T05:44:21.060Z,5184
2018-07-28T05:45:23.113Z,5204
2018-07-28T05:46:25.873Z,5248
2018-07-28T05:47:27.918Z,5284
2018-07-28T05:48:29.958Z,5352
2018-07-28T05:49:32.005Z,5376
2018-07-28T05:50:34.040Z,5452
2018-07-28T05:51:36.091Z,5472
2018-07-28T05:52:38.521Z,5500
2018-07-28T05:53:40.560Z,5536
2018-07-28T05:54:42.615Z,5588
2018-07-28T05:55:44.652Z,5628
2018-07-28T05:56:46.701Z,5652
2018-07-28T05:57:48.758Z,5704
2018-07-28T05:58:50.806Z,5716
2018-07-28T05:59:52.844Z,5748
2018-07-28T06:00:54.898Z,5776
2018-07-28T06:01:57.240Z,5808
2018-07-28T06:02:59.288Z,5840
2018-07-28T06:04:01.325Z,5868
2018-07-28T06:05:03.760Z,5916
2018-07-28T06:06:06.499Z,5948
2018-07-28T06:07:08.534Z,5988
2018-07-28T06:08:10.582Z,6004
2018-07-28T06:09:12.630Z,6032
2018-07-28T06:10:14.957Z,6044
2018-07-28T06:11:17.297Z,6072
2018-07-28T06:12:19.335Z,6084
2018-07-28T06:13:21.376Z,6112
2018-07-28T06:14:23.416Z,6140
2018-07-28T06:15:25.859Z,6184
2018-07-28T06:16:27.898Z,6212
2018-07-28T06:17:29.953Z,6228
2018-07-28T06:18:31.994Z,6244
2018-07-28T06:19:34.032Z,6252
2018-07-28T06:20:36.085Z,6280
2018-07-28T06:21:38.419Z,6324
2018-07-28T06:22:40.473Z,6336
2018-07-28T06:23:42.508Z,6376
2018-07-28T06:24:44.853Z,6400
2018-07-28T06:25:47.184Z,6432
2018-07-28T06:26:49.223Z,6496
2018-07-28T06:27:51.699Z,6512
2018-07-28T06:28:54.402Z,6536
2018-07-28T06:29:56.450Z,6564
2018-07-28T06:30:58.503Z,6624
2018-07-28T06:32:01.224Z,6632
2018-07-28T06:33:03.563Z,6664
2018-07-28T06:34:05.607Z,6708
2018-07-28T06:35:07.655Z,6772
2018-07-28T06:36:09.695Z,6780
2018-07-28T06:37:12.044Z,6820
2018-07-28T06:38:14.086Z,6828
2018-07-28T06:39:16.137Z,6868
2018-07-28T06:40:18.172Z,6900
2018-07-28T06:41:20.225Z,6940
2018-07-28T06:42:22.275Z,6968
2018-07-28T06:43:24.596Z,7020
2018-07-28T06:44:26.651Z,7104
2018-07-28T06:45:28.694Z,7120
2018-07-28T06:46:30.731Z,7164
2018-07-28T06:47:33.161Z,7232
2018-07-28T06:48:35.890Z,7212
2018-07-28T06:49:37.939Z,7228
2018-07-28T06:50:39.988Z,7272
2018-07-28T06:51:42.043Z,7284
2018-07-28T06:52:44.083Z,7336
2018-07-28T06:53:47.161Z,7348
2018-07-28T06:54:50.553Z,7384
2018-07-28T06:55:52.616Z,7396
2018-07-28T06:56:54.656Z,7436
2018-07-28T06:57:56.748Z,7492
2018-07-28T06:58:58.888Z,7524
2018-07-28T07:00:01.073Z,7568
2018-07-28T07:01:03.254Z,7576
2018-07-28T07:02:06.464Z,7592
2018-07-28T07:03:08.785Z,7620
2018-07-28T07:04:10.845Z,7664
2018-07-28T07:05:12.894Z,7708
2018-07-28T07:06:14.940Z,7768
2018-07-28T07:07:16.991Z,7816
2018-07-28T07:08:19.423Z,7888
2018-07-28T07:09:21.467Z,7952
2018-07-28T07:10:23.526Z,8024
2018-07-28T07:11:25.571Z,8072
2018-07-28T07:12:27.619Z,8132
2018-07-28T07:13:29.971Z,8176
2018-07-28T07:14:32.011Z,8216
2018-07-28T07:15:34.443Z,8276
2018-07-28T07:16:36.773Z,8332
2018-07-28T07:17:38.832Z,8364
2018-07-28T07:18:40.876Z,8412
2018-07-28T07:19:42.916Z,8472
2018-07-28T07:20:45.350Z,8512
2018-07-28T07:21:47.405Z,8560
2018-07-28T07:22:49.741Z,8644
2018-07-28T07:23:51.800Z,8712
2018-07-28T07:24:54.138Z,8776
2018-07-28T07:25:56.481Z,8788
2018-07-28T07:26:58.540Z,8840
2018-07-28T07:28:00.590Z,8880
2018-07-28T07:29:02.644Z,8928
2018-07-28T07:30:04.683Z,9000
2018-07-28T07:31:06.740Z,9056
2018-07-28T07:32:08.791Z,9148
2018-07-28T07:33:10.835Z,9208
2018-07-28T07:34:12.894Z,9272
2018-07-28T07:35:15.324Z,9336
2018-07-28T07:36:17.471Z,9416
2018-07-28T07:37:19.435Z,9492
2018-07-28T07:38:21.489Z,9552
2018-07-28T07:39:23.535Z,9604
2018-07-28T07:40:25.587Z,9648
2018-07-28T07:41:27.631Z,9736
2018-07-28T07:42:29.676Z,9784
2018-07-28T07:43:31.738Z,9844
2018-07-28T07:44:33.784Z,9872
2018-07-28T07:45:35.832Z,9896
2018-07-28T07:46:37.899Z,9936
2018-07-28T07:47:40.053Z,10000
2018-07-28T07:48:41.996Z,10032
2018-07-28T07:49:44.052Z,10112
2018-07-28T07:50:46.091Z,10180
2018-07-28T07:51:48.154Z,10212
2018-07-28T07:52:50.206Z,10240
2018-07-28T07:53:52.668Z,10256
2018-07-28T07:54:54.962Z,10268
2018-07-28T07:55:57.014Z,10288
2018-07-28T07:56:59.446Z,10332
2018-07-28T07:58:01.518Z,10312
2018-07-28T07:59:03.838Z,10268
2018-07-28T08:00:06.160Z,10296
2018-07-28T08:01:08.598Z,10336
2018-07-28T08:02:10.647Z,10400
2018-07-28T08:03:12.709Z,10440
2018-07-28T08:04:15.140Z,10484
2018-07-28T08:05:17.193Z,10556
2018-07-28T08:06:19.685Z,10652
2018-07-28T08:07:22.046Z,10736
2018-07-28T08:08:24.112Z,10748
2018-07-28T08:09:26.156Z,10852
2018-07-28T08:10:28.486Z,10836
2018-07-28T08:11:30.533Z,10884
2018-07-28T08:12:32.600Z,10936
2018-07-28T08:13:35.251Z,10972
2018-07-28T08:14:37.306Z,10980
2018-07-28T08:15:39.361Z,11000
2018-07-28T08:16:41.400Z,11040
2018-07-28T08:17:43.455Z,11112
2018-07-28T08:18:45.515Z,11236
2018-07-28T08:19:47.555Z,11344
2018-07-28T08:20:49.615Z,11432
2018-07-28T08:21:52.359Z,11500
2018-07-28T08:22:54.406Z,11684
2018-07-28T08:23:56.470Z,11796
2018-07-28T08:24:58.798Z,12056
2018-07-28T08:26:00.845Z,13992
2018-07-28T08:27:02.892Z,25408
2018-07-28T08:28:04.953Z,27936
2018-07-28T08:29:06.996Z,28384
2018-07-28T08:30:09.051Z,28320
2018-07-28T08:31:11.107Z,29696
2018-07-28T08:32:13.163Z,27136
2018-07-28T08:33:15.242Z,28064
2018-07-28T08:34:17.607Z,26304
2018-07-28T08:35:20.043Z,28832
2018-07-28T08:36:22.101Z,28928
2018-07-28T08:37:24.156Z,33440
2018-07-28T08:38:26.201Z,33664
2018-07-28T08:39:28.549Z,59648
2018-07-28T08:40:30.592Z,73792
2018-07-28T08:41:32.657Z,69920
2018-07-28T08:42:35.084Z,69312
2018-07-28T08:43:37.128Z,62688
2018-07-28T08:44:39.471Z,63520
2018-07-28T08:45:41.528Z,66624
2018-07-28T08:46:43.888Z,66368
2018-07-28T08:47:45.942Z,62208
2018-07-28T08:48:48.059Z,64256
2018-07-28T08:49:50.038Z,68448
2018-07-28T08:50:52.096Z,71104
2018-07-28T08:51:54.153Z,74304
2018-07-28T08:52:56.190Z,73568
2018-07-28T08:53:58.250Z,74848
2018-07-28T08:55:00.300Z,80096
2018-07-28T08:56:02.648Z,81120
2018-07-28T08:57:04.710Z,84384
2018-07-28T08:58:06.763Z,87104
2018-07-28T08:59:08.887Z,85344
2018-07-28T09:00:11.329Z,82976
2018-07-28T09:01:13.886Z,79008
2018-07-28T09:02:15.931Z,77568
2018-07-28T09:03:17.995Z,79328
2018-07-28T09:04:20.055Z,81184
2018-07-28T09:05:22.097Z,80032
2018-07-28T09:06:24.452Z,77440
2018-07-28T09:07:26.505Z,78496
2018-07-28T09:08:28.561Z,80416
2018-07-28T09:09:30.605Z,78016
2018-07-28T09:10:33.073Z,79744
2018-07-28T09:11:35.423Z,86656
2018-07-28T09:12:37.482Z,91616
2018-07-28T09:13:39.522Z,84736
2018-07-28T09:14:41.587Z,84448
2018-07-28T09:15:43.922Z,84928
2018-07-28T09:16:45.967Z,93440
2018-07-28T09:17:48.030Z,90912
2018-07-28T09:18:50.077Z,88928
2018-07-28T09:19:52.420Z,96096
2018-07-28T09:20:54.787Z,99424
2018-07-28T09:21:57.150Z,89952
2018-07-28T09:22:59.198Z,84064
2018-07-28T09:24:01.541Z,87488
2018-07-28T09:25:03.962Z,92864
2018-07-28T09:26:05.950Z,97344
2018-07-28T09:27:08.394Z,101024
2018-07-28T09:28:10.457Z,98144
2018-07-28T09:29:12.496Z,96576
2018-07-28T09:30:14.565Z,91776
2018-07-28T09:31:16.614Z,89920
2018-07-28T09:32:18.952Z,93376
2018-07-28T09:33:21.002Z,98304
2018-07-28T09:34:23.347Z,99008
2018-07-28T09:35:25.693Z,92000
2018-07-28T09:36:27.756Z,87360
2018-07-28T09:37:29.815Z,84128
2018-07-28T09:38:32.162Z,83200
2018-07-28T09:39:34.229Z,88352
2018-07-28T09:40:36.276Z,92544
2018-07-28T09:41:38.719Z,88384
2018-07-28T09:42:40.766Z,87808
2018-07-28T09:43:42.826Z,94400
2018-07-28T09:44:44.882Z,90400
2018-07-28T09:45:46.930Z,87936
2018-07-28T09:46:49.322Z,89472
2018-07-28T09:47:52.050Z,87616
2018-07-28T09:48:54.110Z,89440
2018-07-28T09:49:56.157Z,92800
2018-07-28T09:50:58.208Z,91712
2018-07-28T09:52:00.268Z,100512
2018-07-28T09:53:02.631Z,114176
2018-07-28T09:54:04.696Z,117056
2018-07-28T09:55:06.758Z,85120
2018-07-28T09:56:08.860Z,93280
2018-07-28T09:57:11.239Z,127744
2018-07-28T09:58:13.299Z,128128
2018-07-28T09:59:15.347Z,126624
2018-07-28T10:00:17.411Z,119616
2018-07-28T10:01:19.856Z,121856
2018-07-28T10:02:21.909Z,121792
2018-07-28T10:03:23.975Z,126144
2018-07-28T10:04:26.030Z,130752
2018-07-28T10:05:28.100Z,117760
2018-07-28T10:06:30.135Z,99296
2018-07-28T10:07:32.487Z,94240
2018-07-28T10:08:34.538Z,98432
2018-07-28T10:09:36.602Z,93312
2018-07-28T10:10:38.955Z,89952
2018-07-28T10:11:41.303Z,92928
2018-07-28T10:12:43.375Z,97312
2018-07-28T10:13:45.717Z,96352
2018-07-28T10:14:48.069Z,93600
2018-07-28T10:15:50.116Z,99008
2018-07-28T10:16:52.179Z,99040
2018-07-28T10:17:54.235Z,101120
2018-07-28T10:18:56.570Z,99552
2018-07-28T10:19:58.641Z,100672
2018-07-28T10:21:00.687Z,110912
2018-07-28T10:22:03.042Z,114496
2018-07-28T10:23:05.168Z,109632
2018-07-28T10:24:08.224Z,101600
2018-07-28T10:25:10.276Z,97280
2018-07-28T10:26:12.337Z,105824
2018-07-28T10:27:14.393Z,109184
2018-07-28T10:28:16.444Z,36544
2018-07-28T10:29:18.897Z,29600
2018-07-28T10:30:20.954Z,85120
2018-07-28T10:31:23.006Z,34400
2018-07-28T10:32:25.080Z,118176
2018-07-28T10:33:27.135Z,119552
2018-07-28T10:34:29.194Z,24352
2018-07-28T10:35:31.280Z,106848
2018-07-28T10:36:33.353Z,115904
2018-07-28T10:37:35.884Z,111520
2018-07-28T10:38:38.356Z,97376
2018-07-28T10:39:41.781Z,98432
2018-07-28T10:40:43.844Z,107936
2018-07-28T10:41:45.912Z,101568
2018-07-28T10:42:47.966Z,98496
2018-07-28T10:43:50.026Z,101792
2018-07-28T10:44:52.091Z,103360
2018-07-28T10:45:54.141Z,99488
2018-07-28T10:46:56.513Z,96192
2018-07-28T10:47:58.574Z,102336
2018-07-28T10:49:00.647Z,106656
2018-07-28T10:50:02.707Z,104640
2018-07-28T10:51:04.778Z,106944
2018-07-28T10:52:07.240Z,113216
2018-07-28T10:53:09.282Z,114464
2018-07-28T10:54:11.353Z,110080
2018-07-28T10:55:13.412Z,109824
2018-07-28T10:56:15.479Z,115296
2018-07-28T10:57:17.821Z,109920
2018-07-28T10:58:19.884Z,104224
2018-07-28T10:59:22.230Z,107040
2018-07-28T11:00:24.343Z,108000
2018-07-28T11:01:26.794Z,103040
2018-07-28T11:02:28.842Z,100416
2018-07-28T11:03:30.909Z,103936
2018-07-28T11:04:33.279Z,110688
2018-07-28T11:05:35.352Z,108416
2018-07-28T11:06:37.404Z,105152
2018-07-28T11:07:39.466Z,106080
2018-07-28T11:08:41.533Z,103136
2018-07-28T11:09:43.587Z,106816
2018-07-28T11:10:45.652Z,109600
2018-07-28T11:11:47.720Z,112480
2018-07-28T11:12:49.794Z,113344
2018-07-28T11:13:51.839Z,111072
2018-07-28T11:14:53.911Z,113472
2018-07-28T11:15:55.967Z,121120
2018-07-28T11:16:58.025Z,124128
2018-07-28T11:18:00.097Z,119872
2018-07-28T11:19:02.204Z,113408
2018-07-28T11:20:04.697Z,111520
2018-07-28T11:21:07.136Z,111872
2018-07-28T11:22:09.206Z,110560
2018-07-28T11:23:11.264Z,111488
2018-07-28T11:24:13.326Z,115584
2018-07-28T11:25:15.677Z,117536
2018-07-28T11:26:17.774Z,112032
2018-07-28T11:27:20.277Z,109056
2018-07-28T11:28:22.620Z,110304
2018-07-28T11:29:24.685Z,113696
2018-07-28T11:30:26.742Z,120544
2018-07-28T11:31:28.803Z,123072
2018-07-28T11:32:30.912Z,121760
2018-07-28T11:33:32.931Z,98464
2018-07-28T11:34:35.000Z,108800
2018-07-28T11:35:37.332Z,107808
2018-07-28T11:36:39.397Z,112448
2018-07-28T11:37:41.745Z,114816
2018-07-28T11:38:43.816Z,108960
2018-07-28T11:39:46.205Z,109056
2018-07-28T11:40:48.274Z,113888
2018-07-28T11:41:50.653Z,116160
2018-07-28T11:42:52.723Z,114048
2018-07-28T11:43:55.181Z,111200
2018-07-28T11:44:57.280Z,118912
2018-07-28T11:45:59.391Z,128608
2018-07-28T11:47:01.791Z,129984
2018-07-28T11:48:03.857Z,124576
2018-07-28T11:49:06.302Z,116352
2018-07-28T11:50:08.359Z,115680
2018-07-28T11:51:10.439Z,108448
2018-07-28T11:52:12.767Z,107968
2018-07-28T11:53:14.850Z,105664
2018-07-28T11:54:16.905Z,102752
2018-07-28T11:55:18.974Z,102048
2018-07-28T11:56:21.036Z,109088
2018-07-28T11:57:23.383Z,111872
2018-07-28T11:58:25.611Z,111552
2018-07-28T11:59:27.506Z,115456
2018-07-28T12:00:29.573Z,122720
2018-07-28T12:01:31.629Z,125088
2018-07-28T12:02:34.030Z,127072
2018-07-28T12:03:36.479Z,126880
2018-07-28T12:04:38.542Z,116992
2018-07-28T12:05:40.602Z,106880
2018-07-28T12:06:42.984Z,103136
2018-07-28T12:07:45.048Z,107392
2018-07-28T12:08:47.394Z,113248
2018-07-28T12:09:49.457Z,120576
2018-07-28T12:10:51.526Z,119744
2018-07-28T12:11:53.580Z,117792
2018-07-28T12:12:55.645Z,118368
2018-07-28T12:13:57.713Z,119840
2018-07-28T12:14:59.771Z,118624
2018-07-28T12:16:01.843Z,115840
2018-07-28T12:17:04.286Z,117888
2018-07-28T12:18:06.665Z,119328
2018-07-28T12:19:08.697Z,113312
2018-07-28T12:20:10.785Z,118720
2018-07-28T12:21:12.817Z,124096
2018-07-28T12:22:15.158Z,123840
2018-07-28T12:23:17.212Z,123648
2018-07-28T12:24:19.282Z,120224
2018-07-28T12:25:21.331Z,115392
2018-07-28T12:26:23.396Z,117696
2018-07-28T12:27:25.451Z,122112
2018-07-28T12:28:27.532Z,119392
2018-07-28T12:29:29.874Z,120320
2018-07-28T12:30:31.934Z,120608
2018-07-28T12:31:34.002Z,113728
2018-07-28T12:32:36.049Z,108512
2018-07-28T12:33:38.121Z,111232
2018-07-28T12:34:40.643Z,113536
2018-07-28T12:35:43.612Z,93504
2018-07-28T12:36:45.956Z,77568
2018-07-28T12:37:48.414Z,92832
2018-07-28T12:38:50.475Z,102368
2018-07-28T12:39:52.544Z,105152
2018-07-28T12:40:54.662Z,106240
2018-07-28T12:41:57.004Z,105696
2018-07-28T12:42:59.073Z,104896
2018-07-28T12:44:01.134Z,106240
2018-07-28T12:45:03.476Z,23424
2018-07-28T12:46:05.542Z,106048
2018-07-28T12:47:07.604Z,103328
2018-07-28T12:48:09.660Z,101824
2018-07-28T12:49:11.743Z,105184
2018-07-28T12:50:13.796Z,105952
2018-07-28T12:51:15.856Z,97568
2018-07-28T12:52:17.913Z,94144
2018-07-28T12:53:19.983Z,95744
2018-07-28T12:54:22.039Z,96832
2018-07-28T12:55:24.189Z,99136
2018-07-28T12:56:26.177Z,100576
2018-07-28T12:57:28.228Z,106432
2018-07-28T12:58:30.296Z,110656
2018-07-28T12:59:32.356Z,106304
2018-07-28T13:00:34.430Z,102464
2018-07-28T13:01:36.512Z,104992
2018-07-28T13:02:38.885Z,107872
2018-07-28T13:03:40.971Z,107968
2018-07-28T13:04:43.340Z,104736
2018-07-28T13:05:45.424Z,101280
2018-07-28T13:06:47.508Z,100192
2018-07-28T13:07:49.590Z,103232
2018-07-28T13:08:51.677Z,105792
2018-07-28T13:09:54.118Z,103872
2018-07-28T13:10:56.132Z,102304
2018-07-28T13:11:58.215Z,104320
2018-07-28T13:13:00.297Z,103264
2018-07-28T13:14:02.376Z,99552
2018-07-28T13:15:04.753Z,98272
2018-07-28T13:16:06.835Z,96064
2018-07-28T13:17:08.949Z,99296
2018-07-28T13:18:11.412Z,98816
2018-07-28T13:19:13.496Z,23456
2018-07-28T13:20:15.584Z,22848
2018-07-28T13:21:17.668Z,65440
2018-07-28T13:22:19.757Z,96448
2018-07-28T13:23:21.839Z,98112
2018-07-28T13:24:23.931Z,93440
2018-07-28T13:25:26.013Z,92256
2018-07-28T13:26:28.100Z,94912
2018-07-28T13:27:30.184Z,99200
2018-07-28T13:28:32.557Z,98496
2018-07-28T13:29:34.641Z,98720
2018-07-28T13:30:36.723Z,95712
2018-07-28T13:31:38.807Z,101024
2018-07-28T13:32:40.890Z,104800
2018-07-28T13:33:42.974Z,99552
2018-07-28T13:34:45.343Z,95936
2018-07-28T13:35:47.437Z,94080
2018-07-28T13:36:49.816Z,93568
2018-07-28T13:37:51.897Z,92064
2018-07-28T13:38:53.981Z,25088
2018-07-28T13:39:56.068Z,25056
2018-07-28T13:40:58.189Z,83552
2018-07-28T13:42:00.525Z,20928
2018-07-28T13:43:02.605Z,18892
2018-07-28T13:44:04.689Z,16812
2018-07-28T13:45:06.781Z,15860
2018-07-28T13:46:08.865Z,15744
2018-07-28T13:47:10.949Z,16372
2018-07-28T13:48:13.036Z,18380
2018-07-28T13:49:15.122Z,87648